sensor_id;sensor_type;location;lat;lon;timestamp;temperature;humidity
29729;DHT22;20055;51.498;11.960;2022-10-19T00:01:57;11.20;99.90
29729;DHT22;20055;51.498;11.960;2022-10-19T00:04:23;10.90;99.90
29729;DHT22;20055;51.498;11.960;2022-10-19T00:06:50;10.80;99.90
29729;DHT22;20055;51.498;11.960;2022-10-19T00:09:18;10.50;99.90
29729;DHT22;20055;51.498;11.960;2022-10-19T00:11:46;10.90;99.90
29729;DHT22;20055;51.498;11.960;2022-10-19T00:14:16;11.10;99.90
29729;DHT22;20055;51.498;11.960;2022-10-19T00:16:43;10.50;99.90
29729;DHT22;20055;51.498;11.960;2022-10-19T00:19:19;10.50;99.90
29729;DHT22;20055;51.498;11.960;2022-10-19T00:21:45;10.90;99.90
29729;DHT22;20055;51.498;11.960;2022-10-19T00:24:11;10.60;99.90
29729;DHT22;20055;51.498;11.960;2022-10-19T00:26:38;10.60;99.90
29729;DHT22;20055;51.498;11.960;2022-10-19T00:29:04;10.90;99.90
29729;DHT22;20055;51.498;11.960;2022-10-19T00:31:30;10.70;99.90
29729;DHT22;20055;51.498;11.960;2022-10-19T00:33:57;10.90;99.90
29729;DHT22;20055;51.498;11.960;2022-10-19T00:36:29;10.80;99.90
29729;DHT22;20055;51.498;11.960;2022-10-19T00:38:56;10.20;99.90
29729;DHT22;20055;51.498;11.960;2022-10-19T00:41:25;10.70;99.90
29729;DHT22;20055;51.498;11.960;2022-10-19T00:46:47;10.60;99.90
29729;DHT22;20055;51.498;11.960;2022-10-19T00:49:19;10.70;99.90
29729;DHT22;20055;51.498;11.960;2022-10-19T00:51:52;10.80;99.90
29729;DHT22;20055;51.498;11.960;2022-10-19T00:54:19;10.60;99.90
29729;DHT22;20055;51.498;11.960;2022-10-19T00:56:47;10.70;99.90
29729;DHT22;20055;51.498;11.960;2022-10-19T00:59:18;11.00;99.90
29729;DHT22;20055;51.498;11.960;2022-10-19T01:01:46;10.50;99.90
29729;DHT22;20055;51.498;11.960;2022-10-19T01:04:13;11.10;99.90
29729;DHT22;20055;51.498;11.960;2022-10-19T01:06:40;10.70;99.90
29729;DHT22;20055;51.498;11.960;2022-10-19T01:09:07;11.00;99.90
29729;DHT22;20055;51.498;11.960;2022-10-19T01:34:14;11.00;99.90
29729;DHT22;20055;51.498;11.960;2022-10-19T01:41:56;10.90;99.90
29729;DHT22;20055;51.498;11.960;2022-10-19T01:44:28;11.40;99.90
29729;DHT22;20055;51.498;11.960;2022-10-19T01:47:02;11.30;99.90
29729;DHT22;20055;51.498;11.960;2022-10-19T01:49:43;10.90;99.90
29729;DHT22;20055;51.498;11.960;2022-10-19T01:52:15;11.00;99.90
29729;DHT22;20055;51.498;11.960;2022-10-19T01:54:48;10.20;99.90
29729;DHT22;20055;51.498;11.960;2022-10-19T01:57:19;10.70;99.90
29729;DHT22;20055;51.498;11.960;2022-10-19T01:59:48;10.80;99.90
29729;DHT22;20055;51.498;11.960;2022-10-19T02:02:16;10.80;99.90
29729;DHT22;20055;51.498;11.960;2022-10-19T02:04:43;10.40;99.90
29729;DHT22;20055;51.498;11.960;2022-10-19T02:07:10;10.90;99.90
29729;DHT22;20055;51.498;11.960;2022-10-19T02:09:37;10.80;99.90
29729;DHT22;20055;51.498;11.960;2022-10-19T02:12:08;10.50;99.90
29729;DHT22;20055;51.498;11.960;2022-10-19T02:14:47;11.50;99.90
29729;DHT22;20055;51.498;11.960;2022-10-19T02:17:18;11.20;99.90
29729;DHT22;20055;51.498;11.960;2022-10-19T02:19:45;10.90;99.90
29729;DHT22;20055;51.498;11.960;2022-10-19T02:22:12;10.70;99.90
29729;DHT22;20055;51.498;11.960;2022-10-19T02:24:38;10.80;99.90
29729;DHT22;20055;51.498;11.960;2022-10-19T02:27:05;11.20;99.90
29729;DHT22;20055;51.498;11.960;2022-10-19T02:29:33;10.80;99.90
29729;DHT22;20055;51.498;11.960;2022-10-19T02:32:01;10.30;99.90
29729;DHT22;20055;51.498;11.960;2022-10-19T02:34:29;10.40;99.90
29729;DHT22;20055;51.498;11.960;2022-10-19T02:36:55;10.90;99.90
29729;DHT22;20055;51.498;11.960;2022-10-19T02:39:22;10.60;99.90
29729;DHT22;20055;51.498;11.960;2022-10-19T02:42:11;12.80;99.90
29729;DHT22;20055;51.498;11.960;2022-10-19T02:47:29;10.70;99.90
29729;DHT22;20055;51.498;11.960;2022-10-19T02:49:56;10.60;99.90
29729;DHT22;20055;51.498;11.960;2022-10-19T02:52:23;11.00;99.90
29729;DHT22;20055;51.498;11.960;2022-10-19T02:54:49;10.90;99.90
29729;DHT22;20055;51.498;11.960;2022-10-19T02:59:44;10.50;99.90
29729;DHT22;20055;51.498;11.960;2022-10-19T03:02:11;10.30;99.90
29729;DHT22;20055;51.498;11.960;2022-10-19T03:04:37;10.70;99.90
29729;DHT22;20055;51.498;11.960;2022-10-19T03:07:03;10.70;99.90
29729;DHT22;20055;51.498;11.960;2022-10-19T03:09:30;9.70;99.90
29729;DHT22;20055;51.498;11.960;2022-10-19T03:11:56;10.60;99.90
29729;DHT22;20055;51.498;11.960;2022-10-19T03:14:22;10.00;99.90
29729;DHT22;20055;51.498;11.960;2022-10-19T03:16:48;10.10;99.90
29729;DHT22;20055;51.498;11.960;2022-10-19T03:19:15;10.20;99.90
29729;DHT22;20055;51.498;11.960;2022-10-19T03:21:41;9.50;99.90
29729;DHT22;20055;51.498;11.960;2022-10-19T03:24:07;10.10;99.90
29729;DHT22;20055;51.498;11.960;2022-10-19T03:26:33;10.00;99.90
29729;DHT22;20055;51.498;11.960;2022-10-19T03:28:59;10.60;99.90
29729;DHT22;20055;51.498;11.960;2022-10-19T03:33:52;10.60;99.90
29729;DHT22;20055;51.498;11.960;2022-10-19T03:36:24;11.30;99.90
29729;DHT22;20055;51.498;11.960;2022-10-19T03:38:56;10.80;99.90
29729;DHT22;20055;51.498;11.960;2022-10-19T03:41:25;11.20;99.90
29729;DHT22;20055;51.498;11.960;2022-10-19T03:43:51;11.10;99.90
29729;DHT22;20055;51.498;11.960;2022-10-19T03:46:18;11.00;99.90
29729;DHT22;20055;51.498;11.960;2022-10-19T03:48:45;10.80;99.90
29729;DHT22;20055;51.498;11.960;2022-10-19T03:51:14;10.60;99.90
29729;DHT22;20055;51.498;11.960;2022-10-19T03:56:11;10.20;99.90
29729;DHT22;20055;51.498;11.960;2022-10-19T03:58:38;10.30;99.90
29729;DHT22;20055;51.498;11.960;2022-10-19T04:01:29;10.20;99.90
29729;DHT22;20055;51.498;11.960;2022-10-19T04:03:57;10.10;99.90
29729;DHT22;20055;51.498;11.960;2022-10-19T04:06:36;10.30;99.90
29729;DHT22;20055;51.498;11.960;2022-10-19T04:09:04;10.10;99.90
29729;DHT22;20055;51.498;11.960;2022-10-19T04:11:31;10.00;99.90
29729;DHT22;20055;51.498;11.960;2022-10-19T04:13:58;9.80;99.90
29729;DHT22;20055;51.498;11.960;2022-10-19T04:16:27;10.20;99.90
29729;DHT22;20055;51.498;11.960;2022-10-19T04:18:53;10.30;99.90
29729;DHT22;20055;51.498;11.960;2022-10-19T04:21:32;9.70;99.90
29729;DHT22;20055;51.498;11.960;2022-10-19T04:26:30;9.40;99.90
29729;DHT22;20055;51.498;11.960;2022-10-19T04:28:57;9.70;99.90
29729;DHT22;20055;51.498;11.960;2022-10-19T04:31:24;10.10;99.90
29729;DHT22;20055;51.498;11.960;2022-10-19T04:33:50;9.60;99.90
29729;DHT22;20055;51.498;11.960;2022-10-19T04:36:17;9.60;99.90
29729;DHT22;20055;51.498;11.960;2022-10-19T04:38:43;9.30;99.90
29729;DHT22;20055;51.498;11.960;2022-10-19T04:41:12;9.70;99.90
29729;DHT22;20055;51.498;11.960;2022-10-19T04:43:38;9.80;99.90
29729;DHT22;20055;51.498;11.960;2022-10-19T04:46:06;9.50;99.90
29729;DHT22;20055;51.498;11.960;2022-10-19T04:48:34;9.80;99.90
29729;DHT22;20055;51.498;11.960;2022-10-19T04:51:01;9.30;99.90
29729;DHT22;20055;51.498;11.960;2022-10-19T04:53:27;9.50;99.90
29729;DHT22;20055;51.498;11.960;2022-10-19T04:58:20;9.60;99.90
29729;DHT22;20055;51.498;11.960;2022-10-19T05:00:47;9.20;99.90
29729;DHT22;20055;51.498;11.960;2022-10-19T05:03:13;9.60;99.90
29729;DHT22;20055;51.498;11.960;2022-10-19T05:05:40;9.60;99.90
29729;DHT22;20055;51.498;11.960;2022-10-19T05:08:06;9.60;99.90
29729;DHT22;20055;51.498;11.960;2022-10-19T05:10:32;9.90;99.90
29729;DHT22;20055;51.498;11.960;2022-10-19T05:13:01;9.80;99.90
29729;DHT22;20055;51.498;11.960;2022-10-19T05:15:28;9.70;99.90
29729;DHT22;20055;51.498;11.960;2022-10-19T05:17:55;10.10;99.90
29729;DHT22;20055;51.498;11.960;2022-10-19T05:20:21;9.80;99.90
29729;DHT22;20055;51.498;11.960;2022-10-19T05:22:48;10.00;99.90
29729;DHT22;20055;51.498;11.960;2022-10-19T05:25:14;9.90;99.90
29729;DHT22;20055;51.498;11.960;2022-10-19T05:27:40;10.20;99.90
29729;DHT22;20055;51.498;11.960;2022-10-19T05:30:07;10.10;99.90
29729;DHT22;20055;51.498;11.960;2022-10-19T05:32:34;10.20;99.90
29729;DHT22;20055;51.498;11.960;2022-10-19T05:35:00;10.20;99.90
29729;DHT22;20055;51.498;11.960;2022-10-19T05:37:26;10.20;99.90
29729;DHT22;20055;51.498;11.960;2022-10-19T05:39:55;9.80;99.90
29729;DHT22;20055;51.498;11.960;2022-10-19T05:42:22;10.30;99.90
29729;DHT22;20055;51.498;11.960;2022-10-19T05:44:48;10.20;99.90
29729;DHT22;20055;51.498;11.960;2022-10-19T05:47:14;10.00;99.90
29729;DHT22;20055;51.498;11.960;2022-10-19T05:49:40;10.20;99.90
29729;DHT22;20055;51.498;11.960;2022-10-19T05:52:06;10.20;99.90
29729;DHT22;20055;51.498;11.960;2022-10-19T05:54:33;10.60;99.90
29729;DHT22;20055;51.498;11.960;2022-10-19T05:57:00;10.60;99.90
29729;DHT22;20055;51.498;11.960;2022-10-19T05:59:27;10.90;99.90
29729;DHT22;20055;51.498;11.960;2022-10-19T06:01:53;10.90;99.90
29729;DHT22;20055;51.498;11.960;2022-10-19T06:04:20;10.80;99.90
29729;DHT22;20055;51.498;11.960;2022-10-19T06:06:46;10.70;99.90
29729;DHT22;20055;51.498;11.960;2022-10-19T06:09:12;10.60;99.90
29729;DHT22;20055;51.498;11.960;2022-10-19T06:11:40;10.60;99.90
29729;DHT22;20055;51.498;11.960;2022-10-19T06:14:10;11.00;99.90
29729;DHT22;20055;51.498;11.960;2022-10-19T06:16:37;10.80;99.90
29729;DHT22;20055;51.498;11.960;2022-10-19T06:19:03;10.90;99.90
29729;DHT22;20055;51.498;11.960;2022-10-19T06:21:31;10.40;99.90
29729;DHT22;20055;51.498;11.960;2022-10-19T06:24:03;11.10;99.90
29729;DHT22;20055;51.498;11.960;2022-10-19T06:26:31;10.90;99.90
29729;DHT22;20055;51.498;11.960;2022-10-19T06:28:59;11.10;99.90
29729;DHT22;20055;51.498;11.960;2022-10-19T06:31:29;11.50;99.90
29729;DHT22;20055;51.498;11.960;2022-10-19T06:33:56;11.00;99.90
29729;DHT22;20055;51.498;11.960;2022-10-19T06:36:25;10.90;99.90
29729;DHT22;20055;51.498;11.960;2022-10-19T06:38:52;10.80;99.90
29729;DHT22;20055;51.498;11.960;2022-10-19T06:41:18;10.80;99.90
29729;DHT22;20055;51.498;11.960;2022-10-19T06:43:52;11.10;99.90
29729;DHT22;20055;51.498;11.960;2022-10-19T06:46:19;10.90;99.90
29729;DHT22;20055;51.498;11.960;2022-10-19T06:48:56;11.00;99.90
29729;DHT22;20055;51.498;11.960;2022-10-19T06:51:27;11.30;99.90
29729;DHT22;20055;51.498;11.960;2022-10-19T06:53:54;11.60;99.90
29729;DHT22;20055;51.498;11.960;2022-10-19T06:56:20;11.40;99.90
29729;DHT22;20055;51.498;11.960;2022-10-19T06:58:47;11.60;99.90
29729;DHT22;20055;51.498;11.960;2022-10-19T07:01:14;11.40;99.90
29729;DHT22;20055;51.498;11.960;2022-10-19T07:03:41;11.70;99.90
29729;DHT22;20055;51.498;11.960;2022-10-19T07:06:10;11.60;99.90
29729;DHT22;20055;51.498;11.960;2022-10-19T07:08:37;11.80;99.90
29729;DHT22;20055;51.498;11.960;2022-10-19T07:11:08;11.60;99.90
29729;DHT22;20055;51.498;11.960;2022-10-19T07:13:35;11.90;99.90
29729;DHT22;20055;51.498;11.960;2022-10-19T07:16:04;12.40;99.90
29729;DHT22;20055;51.498;11.960;2022-10-19T07:18:32;11.80;99.90
29729;DHT22;20055;51.498;11.960;2022-10-19T07:21:01;11.70;99.90
29729;DHT22;20055;51.498;11.960;2022-10-19T07:23:29;11.90;99.90
29729;DHT22;20055;51.498;11.960;2022-10-19T07:25:56;12.30;99.90
29729;DHT22;20055;51.498;11.960;2022-10-19T07:28:28;11.90;99.90
29729;DHT22;20055;51.498;11.960;2022-10-19T07:30:54;12.10;99.90
29729;DHT22;20055;51.498;11.960;2022-10-19T07:33:21;12.20;99.90
29729;DHT22;20055;51.498;11.960;2022-10-19T07:35:47;12.90;99.90
29729;DHT22;20055;51.498;11.960;2022-10-19T07:38:13;12.00;99.90
29729;DHT22;20055;51.498;11.960;2022-10-19T07:40:39;12.00;99.90
29729;DHT22;20055;51.498;11.960;2022-10-19T07:43:06;12.60;99.90
29729;DHT22;20055;51.498;11.960;2022-10-19T07:45:32;12.60;99.90
29729;DHT22;20055;51.498;11.960;2022-10-19T07:47:59;12.60;99.90
29729;DHT22;20055;51.498;11.960;2022-10-19T07:50:25;12.70;99.90
29729;DHT22;20055;51.498;11.960;2022-10-19T07:52:53;12.60;99.90
29729;DHT22;20055;51.498;11.960;2022-10-19T07:55:19;12.50;99.90
29729;DHT22;20055;51.498;11.960;2022-10-19T07:57:46;13.10;99.90
29729;DHT22;20055;51.498;11.960;2022-10-19T08:00:14;12.90;99.90
29729;DHT22;20055;51.498;11.960;2022-10-19T08:02:42;11.80;99.90
29729;DHT22;20055;51.498;11.960;2022-10-19T08:05:08;12.90;99.90
29729;DHT22;20055;51.498;11.960;2022-10-19T08:07:34;12.60;99.90
29729;DHT22;20055;51.498;11.960;2022-10-19T08:10:01;13.10;99.90
29729;DHT22;20055;51.498;11.960;2022-10-19T08:12:27;13.20;99.90
29729;DHT22;20055;51.498;11.960;2022-10-19T08:14:53;13.20;99.90
29729;DHT22;20055;51.498;11.960;2022-10-19T08:17:19;13.30;99.90
29729;DHT22;20055;51.498;11.960;2022-10-19T08:19:45;13.10;99.90
29729;DHT22;20055;51.498;11.960;2022-10-19T08:22:12;13.10;99.90
29729;DHT22;20055;51.498;11.960;2022-10-19T08:24:38;13.10;99.90
29729;DHT22;20055;51.498;11.960;2022-10-19T08:27:04;13.10;99.90
29729;DHT22;20055;51.498;11.960;2022-10-19T08:29:30;12.40;99.90
29729;DHT22;20055;51.498;11.960;2022-10-19T08:31:57;13.30;99.90
29729;DHT22;20055;51.498;11.960;2022-10-19T08:34:23;13.20;99.90
29729;DHT22;20055;51.498;11.960;2022-10-19T08:36:50;13.60;99.90
29729;DHT22;20055;51.498;11.960;2022-10-19T08:39:16;13.60;99.90
29729;DHT22;20055;51.498;11.960;2022-10-19T08:50:15;13.50;99.90
29729;DHT22;20055;51.498;11.960;2022-10-19T08:52:45;13.30;99.90
29729;DHT22;20055;51.498;11.960;2022-10-19T08:55:16;13.40;99.90
29729;DHT22;20055;51.498;11.960;2022-10-19T09:00:41;13.60;99.90
29729;DHT22;20055;51.498;11.960;2022-10-19T09:03:36;14.00;99.90
29729;DHT22;20055;51.498;11.960;2022-10-19T09:06:33;14.10;99.90
29729;DHT22;20055;51.498;11.960;2022-10-19T09:09:02;13.50;99.90
29729;DHT22;20055;51.498;11.960;2022-10-19T09:11:31;14.10;99.90
29729;DHT22;20055;51.498;11.960;2022-10-19T09:14:09;13.70;99.90
29729;DHT22;20055;51.498;11.960;2022-10-19T09:16:37;13.70;99.90
29729;DHT22;20055;51.498;11.960;2022-10-19T09:19:23;13.70;99.90
29729;DHT22;20055;51.498;11.960;2022-10-19T09:21:55;14.00;99.90
29729;DHT22;20055;51.498;11.960;2022-10-19T09:24:34;14.00;99.90
29729;DHT22;20055;51.498;11.960;2022-10-19T09:27:02;14.60;99.90
29729;DHT22;20055;51.498;11.960;2022-10-19T09:29:38;14.40;99.90
29729;DHT22;20055;51.498;11.960;2022-10-19T09:32:12;14.60;99.90
29729;DHT22;20055;51.498;11.960;2022-10-19T09:35:03;14.50;99.90
29729;DHT22;20055;51.498;11.960;2022-10-19T09:37:31;14.70;99.90
29729;DHT22;20055;51.498;11.960;2022-10-19T09:40:01;14.20;99.90
29729;DHT22;20055;51.498;11.960;2022-10-19T09:42:32;15.00;99.90
29729;DHT22;20055;51.498;11.960;2022-10-19T09:44:59;15.10;99.90
29729;DHT22;20055;51.498;11.960;2022-10-19T09:47:34;15.10;99.90
29729;DHT22;20055;51.498;11.960;2022-10-19T09:50:17;15.10;99.90
29729;DHT22;20055;51.498;11.960;2022-10-19T09:52:54;15.30;99.90
29729;DHT22;20055;51.498;11.960;2022-10-19T09:55:43;14.90;99.90
29729;DHT22;20055;51.498;11.960;2022-10-19T10:00:41;14.90;99.90
29729;DHT22;20055;51.498;11.960;2022-10-19T10:03:21;14.40;99.90
29729;DHT22;20055;51.498;11.960;2022-10-19T10:05:48;14.60;99.90
29729;DHT22;20055;51.498;11.960;2022-10-19T10:08:23;14.40;99.90
29729;DHT22;20055;51.498;11.960;2022-10-19T10:11:04;14.70;99.90
29729;DHT22;20055;51.498;11.960;2022-10-19T10:13:41;14.00;99.90
29729;DHT22;20055;51.498;11.960;2022-10-19T10:16:11;14.40;99.90
29729;DHT22;20055;51.498;11.960;2022-10-19T10:18:44;14.60;99.90
29729;DHT22;20055;51.498;11.960;2022-10-19T10:21:23;14.20;99.90
29729;DHT22;20055;51.498;11.960;2022-10-19T10:24:04;14.20;99.90
29729;DHT22;20055;51.498;11.960;2022-10-19T10:26:36;13.90;99.90
29729;DHT22;20055;51.498;11.960;2022-10-19T10:29:21;13.80;99.90
29729;DHT22;20055;51.498;11.960;2022-10-19T10:32:32;13.80;99.90
29729;DHT22;20055;51.498;11.960;2022-10-19T10:34:42;14.20;99.90
29729;DHT22;20055;51.498;11.960;2022-10-19T10:37:21;14.30;99.90
29729;DHT22;20055;51.498;11.960;2022-10-19T10:39:51;13.60;99.90
29729;DHT22;20055;51.498;11.960;2022-10-19T10:42:26;14.30;99.90
29729;DHT22;20055;51.498;11.960;2022-10-19T10:44:53;14.70;99.90
29729;DHT22;20055;51.498;11.960;2022-10-19T10:47:21;14.10;99.90
29729;DHT22;20055;51.498;11.960;2022-10-19T10:50:14;14.00;99.90
29729;DHT22;20055;51.498;11.960;2022-10-19T10:52:59;14.50;99.90
29729;DHT22;20055;51.498;11.960;2022-10-19T10:55:26;14.80;99.90
29729;DHT22;20055;51.498;11.960;2022-10-19T10:58:05;14.50;99.90
29729;DHT22;20055;51.498;11.960;2022-10-19T11:00:34;14.70;99.90
29729;DHT22;20055;51.498;11.960;2022-10-19T11:03:11;14.20;99.90
29729;DHT22;20055;51.498;11.960;2022-10-19T11:05:59;14.20;99.90
29729;DHT22;20055;51.498;11.960;2022-10-19T11:13:49;15.10;99.90
29729;DHT22;20055;51.498;11.960;2022-10-19T11:16:40;14.80;99.90
29729;DHT22;20055;51.498;11.960;2022-10-19T11:30:36;13.90;99.90
29729;DHT22;20055;51.498;11.960;2022-10-19T11:33:14;14.40;99.90
29729;DHT22;20055;51.498;11.960;2022-10-19T11:35:54;14.30;99.90
29729;DHT22;20055;51.498;11.960;2022-10-19T11:49:17;13.40;99.90
29729;DHT22;20055;51.498;11.960;2022-10-19T12:00:45;14.20;99.90
29729;DHT22;20055;51.498;11.960;2022-10-19T12:03:20;15.00;99.90
29729;DHT22;20055;51.498;11.960;2022-10-19T12:14:47;14.60;99.90
29729;DHT22;20055;51.498;11.960;2022-10-19T12:17:31;14.10;99.90
29729;DHT22;20055;51.498;11.960;2022-10-19T12:20:02;13.50;99.90
29729;DHT22;20055;51.498;11.960;2022-10-19T12:24:59;13.50;99.90
29729;DHT22;20055;51.498;11.960;2022-10-19T12:27:34;13.70;99.90
29729;DHT22;20055;51.498;11.960;2022-10-19T12:30:13;13.30;99.90
29729;DHT22;20055;51.498;11.960;2022-10-19T12:38:05;13.40;99.90
29729;DHT22;20055;51.498;11.960;2022-10-19T12:40:50;13.90;99.90
29729;DHT22;20055;51.498;11.960;2022-10-19T12:49:33;13.70;99.90
29729;DHT22;20055;51.498;11.960;2022-10-19T12:52:00;13.00;99.90
29729;DHT22;20055;51.498;11.960;2022-10-19T12:54:32;14.00;99.90
29729;DHT22;20055;51.498;11.960;2022-10-19T12:57:03;13.50;99.90
29729;DHT22;20055;51.498;11.960;2022-10-19T13:02:26;13.60;99.90
29729;DHT22;20055;51.498;11.960;2022-10-19T13:09:47;14.20;99.90
29729;DHT22;20055;51.498;11.960;2022-10-19T13:25:39;14.30;99.90
29729;DHT22;20055;51.498;11.960;2022-10-19T13:40:57;14.00;99.90
29729;DHT22;20055;51.498;11.960;2022-10-19T13:43:33;14.10;99.90
29729;DHT22;20055;51.498;11.960;2022-10-19T13:46:12;14.30;99.90
29729;DHT22;20055;51.498;11.960;2022-10-19T13:54:13;14.40;99.90
29729;DHT22;20055;51.498;11.960;2022-10-19T14:05:20;14.30;99.90
29729;DHT22;20055;51.498;11.960;2022-10-19T14:11:04;13.90;99.90
29729;DHT22;20055;51.498;11.960;2022-10-19T14:13:36;13.80;99.90
29729;DHT22;20055;51.498;11.960;2022-10-19T14:18:34;14.10;99.90
29729;DHT22;20055;51.498;11.960;2022-10-19T14:21:06;13.80;99.90
29729;DHT22;20055;51.498;11.960;2022-10-19T14:23:37;13.80;99.90
29729;DHT22;20055;51.498;11.960;2022-10-19T14:26:14;13.60;99.90
29729;DHT22;20055;51.498;11.960;2022-10-19T14:28:41;14.50;99.90
29729;DHT22;20055;51.498;11.960;2022-10-19T14:31:11;13.30;99.90
29729;DHT22;20055;51.498;11.960;2022-10-19T14:33:45;14.20;99.90
29729;DHT22;20055;51.498;11.960;2022-10-19T14:36:16;13.70;99.90
29729;DHT22;20055;51.498;11.960;2022-10-19T14:38:43;13.70;99.90
29729;DHT22;20055;51.498;11.960;2022-10-19T14:43:56;13.70;99.90
29729;DHT22;20055;51.498;11.960;2022-10-19T14:46:31;14.00;99.90
29729;DHT22;20055;51.498;11.960;2022-10-19T14:49:00;14.00;99.90
29729;DHT22;20055;51.498;11.960;2022-10-19T14:51:45;13.60;99.90
29729;DHT22;20055;51.498;11.960;2022-10-19T14:54:22;13.60;99.90
29729;DHT22;20055;51.498;11.960;2022-10-19T14:57:05;13.70;99.90
29729;DHT22;20055;51.498;11.960;2022-10-19T14:59:42;13.30;99.90
29729;DHT22;20055;51.498;11.960;2022-10-19T15:02:18;12.60;99.90
29729;DHT22;20055;51.498;11.960;2022-10-19T15:04:46;13.20;99.90
29729;DHT22;20055;51.498;11.960;2022-10-19T15:07:19;13.50;99.90
29729;DHT22;20055;51.498;11.960;2022-10-19T15:09:51;13.00;99.90
29729;DHT22;20055;51.498;11.960;2022-10-19T15:12:22;12.70;99.90
29729;DHT22;20055;51.498;11.960;2022-10-19T15:14:50;13.10;99.90
29729;DHT22;20055;51.498;11.960;2022-10-19T15:17:25;13.30;99.90
29729;DHT22;20055;51.498;11.960;2022-10-19T15:19:52;12.50;99.90
29729;DHT22;20055;51.498;11.960;2022-10-19T15:27:39;12.80;99.90
29729;DHT22;20055;51.498;11.960;2022-10-19T15:30:26;12.70;99.90
29729;DHT22;20055;51.498;11.960;2022-10-19T15:35:30;12.50;99.90
29729;DHT22;20055;51.498;11.960;2022-10-19T15:40:46;13.40;99.90
29729;DHT22;20055;51.498;11.960;2022-10-19T15:48:51;12.50;99.90
29729;DHT22;20055;51.498;11.960;2022-10-19T15:53:55;12.60;99.90
29729;DHT22;20055;51.498;11.960;2022-10-19T15:56:24;12.60;99.90
29729;DHT22;20055;51.498;11.960;2022-10-19T15:58:52;12.50;99.90
29729;DHT22;20055;51.498;11.960;2022-10-19T16:01:24;12.50;99.90
29729;DHT22;20055;51.498;11.960;2022-10-19T16:03:51;12.50;99.90
29729;DHT22;20055;51.498;11.960;2022-10-19T16:06:19;12.50;99.90
29729;DHT22;20055;51.498;11.960;2022-10-19T16:08:46;12.60;99.90
29729;DHT22;20055;51.498;11.960;2022-10-19T16:11:13;12.10;99.90
29729;DHT22;20055;51.498;11.960;2022-10-19T16:13:39;11.90;99.90
29729;DHT22;20055;51.498;11.960;2022-10-19T16:16:09;12.20;99.90
29729;DHT22;20055;51.498;11.960;2022-10-19T16:18:35;12.10;99.90
29729;DHT22;20055;51.498;11.960;2022-10-19T16:21:02;12.60;99.90
29729;DHT22;20055;51.498;11.960;2022-10-19T16:23:28;12.00;99.90
29729;DHT22;20055;51.498;11.960;2022-10-19T16:25:55;12.20;99.90
29729;DHT22;20055;51.498;11.960;2022-10-19T16:28:22;12.10;99.90
29729;DHT22;20055;51.498;11.960;2022-10-19T16:30:52;12.30;99.90
29729;DHT22;20055;51.498;11.960;2022-10-19T16:33:18;12.40;99.90
29729;DHT22;20055;51.498;11.960;2022-10-19T16:35:44;11.80;99.90
29729;DHT22;20055;51.498;11.960;2022-10-19T16:38:10;12.00;99.90
29729;DHT22;20055;51.498;11.960;2022-10-19T16:40:37;12.30;99.90
29729;DHT22;20055;51.498;11.960;2022-10-19T16:43:04;13.00;99.90
29729;DHT22;20055;51.498;11.960;2022-10-19T16:45:30;12.30;99.90
29729;DHT22;20055;51.498;11.960;2022-10-19T16:47:57;12.10;99.90
29729;DHT22;20055;51.498;11.960;2022-10-19T16:50:23;12.50;99.90
29729;DHT22;20055;51.498;11.960;2022-10-19T16:53:03;12.30;99.90
29729;DHT22;20055;51.498;11.960;2022-10-19T16:55:30;12.00;99.90
29729;DHT22;20055;51.498;11.960;2022-10-19T16:57:56;12.00;99.90
29729;DHT22;20055;51.498;11.960;2022-10-19T17:00:22;11.50;99.90
29729;DHT22;20055;51.498;11.960;2022-10-19T17:02:49;11.40;99.90
29729;DHT22;20055;51.498;11.960;2022-10-19T17:05:15;12.00;99.90
29729;DHT22;20055;51.498;11.960;2022-10-19T17:07:41;12.00;99.90
29729;DHT22;20055;51.498;11.960;2022-10-19T17:10:08;11.80;99.90
29729;DHT22;20055;51.498;11.960;2022-10-19T17:12:34;12.10;99.90
29729;DHT22;20055;51.498;11.960;2022-10-19T17:15:04;11.60;99.90
29729;DHT22;20055;51.498;11.960;2022-10-19T17:17:31;11.70;99.90
29729;DHT22;20055;51.498;11.960;2022-10-19T17:19:57;11.70;99.90
29729;DHT22;20055;51.498;11.960;2022-10-19T17:22:23;11.50;99.90
29729;DHT22;20055;51.498;11.960;2022-10-19T17:24:50;11.50;99.90
29729;DHT22;20055;51.498;11.960;2022-10-19T17:27:16;11.30;99.90
29729;DHT22;20055;51.498;11.960;2022-10-19T17:29:42;11.60;99.90
29729;DHT22;20055;51.498;11.960;2022-10-19T17:32:08;11.00;99.90
29729;DHT22;20055;51.498;11.960;2022-10-19T17:34:35;10.80;99.90
29729;DHT22;20055;51.498;11.960;2022-10-19T17:37:01;11.00;99.90
29729;DHT22;20055;51.498;11.960;2022-10-19T17:39:27;11.50;99.90
29729;DHT22;20055;51.498;11.960;2022-10-19T17:41:53;11.10;99.90
29729;DHT22;20055;51.498;11.960;2022-10-19T17:44:20;11.00;99.90
29729;DHT22;20055;51.498;11.960;2022-10-19T17:46:47;11.00;99.90
29729;DHT22;20055;51.498;11.960;2022-10-19T17:49:14;11.30;99.90
29729;DHT22;20055;51.498;11.960;2022-10-19T17:51:41;11.10;99.90
29729;DHT22;20055;51.498;11.960;2022-10-19T17:54:10;10.70;99.90
29729;DHT22;20055;51.498;11.960;2022-10-19T17:56:37;10.90;99.90
29729;DHT22;20055;51.498;11.960;2022-10-19T17:59:04;10.40;99.90
29729;DHT22;20055;51.498;11.960;2022-10-19T18:01:32;10.80;99.90
29729;DHT22;20055;51.498;11.960;2022-10-19T18:03:59;10.80;99.90
29729;DHT22;20055;51.498;11.960;2022-10-19T18:06:28;10.80;99.90
29729;DHT22;20055;51.498;11.960;2022-10-19T18:08:58;10.60;99.90
29729;DHT22;20055;51.498;11.960;2022-10-19T18:11:30;11.30;99.90
29729;DHT22;20055;51.498;11.960;2022-10-19T18:14:00;10.30;99.90
29729;DHT22;20055;51.498;11.960;2022-10-19T18:16:30;10.70;99.90
29729;DHT22;20055;51.498;11.960;2022-10-19T18:18:59;10.70;99.90
29729;DHT22;20055;51.498;11.960;2022-10-19T18:21:27;10.40;99.90
29729;DHT22;20055;51.498;11.960;2022-10-19T18:23:57;10.50;99.90
29729;DHT22;20055;51.498;11.960;2022-10-19T18:26:25;10.00;99.90
29729;DHT22;20055;51.498;11.960;2022-10-19T18:28:53;9.90;99.90
29729;DHT22;20055;51.498;11.960;2022-10-19T18:33:49;10.30;99.90
29729;DHT22;20055;51.498;11.960;2022-10-19T18:36:19;10.20;99.90
29729;DHT22;20055;51.498;11.960;2022-10-19T18:38:53;10.20;99.90
29729;DHT22;20055;51.498;11.960;2022-10-19T18:41:20;10.10;99.90
29729;DHT22;20055;51.498;11.960;2022-10-19T18:43:54;10.30;99.90
29729;DHT22;20055;51.498;11.960;2022-10-19T18:46:22;10.40;99.90
29729;DHT22;20055;51.498;11.960;2022-10-19T18:48:49;10.20;99.90
29729;DHT22;20055;51.498;11.960;2022-10-19T18:51:16;9.50;99.90